createdAt,value
2023-03-06T00:01:01.889Z,13.90
2023-03-06T00:03:30.047Z,15.10
2023-03-06T00:05:58.876Z,15.80
2023-03-06T00:08:29.115Z,15.40
2023-03-06T00:10:57.911Z,14.40
2023-03-06T00:13:29.879Z,14.90
2023-03-06T00:16:03.190Z,17.70
2023-03-06T00:18:31.082Z,13.80
2023-03-06T00:20:59.279Z,14.70
2023-03-06T00:23:27.918Z,14.90
2023-03-06T00:25:55.874Z,15.80
2023-03-06T00:28:23.970Z,13.80
2023-03-06T00:30:51.916Z,15.70
2023-03-06T00:33:19.821Z,13.60
2023-03-06T00:35:47.748Z,14.60
2023-03-06T00:38:15.774Z,13.40
2023-03-06T00:40:43.716Z,13.80
2023-03-06T00:43:12.108Z,17.10
2023-03-06T00:45:39.967Z,15.80
2023-03-06T00:48:10.811Z,13.90
2023-03-06T00:50:38.629Z,14.90
2023-03-06T00:53:06.401Z,16.40
2023-03-06T00:55:34.377Z,13.60
2023-03-06T00:58:02.199Z,15.10
2023-03-06T01:00:30.133Z,16.10
2023-03-06T01:02:58.219Z,14.90
2023-03-06T01:05:26.610Z,15.50
2023-03-06T01:07:54.819Z,14.10
2023-03-06T01:10:23.021Z,14.80
2023-03-06T01:12:51.018Z,14.60
2023-03-06T01:15:20.029Z,15.30
2023-03-06T01:17:51.775Z,13.70
2023-03-06T01:20:19.675Z,14.00
2023-03-06T01:22:47.475Z,14.80
2023-03-06T01:25:15.404Z,14.10
2023-03-06T01:27:43.951Z,15.70
2023-03-06T01:30:13.328Z,15.40
2023-03-06T01:32:41.200Z,14.50
2023-03-06T01:35:10.026Z,15.40
2023-03-06T01:37:39.292Z,14.80
2023-03-06T01:40:11.273Z,14.00
2023-03-06T01:42:39.562Z,17.40
2023-03-06T01:45:27.588Z,16.10
2023-03-06T01:47:55.383Z,15.90
2023-03-06T01:50:23.244Z,15.40
2023-03-06T01:52:57.393Z,16.50
2023-03-06T01:55:32.529Z,15.00
2023-03-06T01:58:05.671Z,16.00
2023-03-06T02:00:33.846Z,15.20
2023-03-06T02:03:14.060Z,16.40
2023-03-06T02:05:44.146Z,17.10
2023-03-06T02:08:17.343Z,16.10
2023-03-06T02:11:11.286Z,14.30
2023-03-06T02:13:40.430Z,15.30
2023-03-06T02:16:10.192Z,19.10
2023-03-06T02:18:41.761Z,14.40
2023-03-06T02:23:50.627Z,17.00
2023-03-06T02:26:19.704Z,18.00
2023-03-06T02:28:47.653Z,15.40
2023-03-06T02:31:28.096Z,16.20
2023-03-06T02:34:26.754Z,13.70
2023-03-06T02:37:08.886Z,16.00
2023-03-06T02:39:44.800Z,16.00
2023-03-06T02:42:25.918Z,16.10
2023-03-06T02:44:58.605Z,16.80
2023-03-06T02:47:26.563Z,18.00
2023-03-06T02:49:55.524Z,15.90
2023-03-06T02:52:23.905Z,14.80
2023-03-06T02:54:51.686Z,16.80
2023-03-06T02:57:19.764Z,15.10
2023-03-06T02:59:47.608Z,15.70
2023-03-06T03:02:16.737Z,15.80
2023-03-06T03:04:45.325Z,14.40
2023-03-06T03:07:13.433Z,14.70
2023-03-06T03:09:41.464Z,17.40
2023-03-06T03:12:09.744Z,16.10
2023-03-06T03:14:37.543Z,12.40
2023-03-06T03:17:05.547Z,14.90
2023-03-06T03:19:33.351Z,15.30
2023-03-06T03:22:01.605Z,15.40
2023-03-06T03:24:29.567Z,17.30
2023-03-06T03:26:57.626Z,15.60
2023-03-06T03:29:25.694Z,12.40
2023-03-06T03:31:53.733Z,18.20
2023-03-06T03:34:25.371Z,15.50
2023-03-06T03:36:54.733Z,14.00
2023-03-06T03:39:22.981Z,13.20
2023-03-06T03:41:50.884Z,14.70
2023-03-06T03:44:20.281Z,15.40
2023-03-06T03:46:50.745Z,14.50
2023-03-06T03:49:21.601Z,14.30
2023-03-06T03:51:49.515Z,14.90
2023-03-06T03:54:17.993Z,16.00
2023-03-06T03:56:47.275Z,16.80
2023-03-06T03:59:19.523Z,13.40
2023-03-06T04:01:56.113Z,14.70
2023-03-06T04:04:24.980Z,15.60
2023-03-06T04:06:53.751Z,16.70
2023-03-06T04:09:21.962Z,14.00
2023-03-06T04:11:50.018Z,13.80
2023-03-06T04:14:17.892Z,14.80
2023-03-06T04:16:45.893Z,14.10
2023-03-06T04:19:13.788Z,15.00
2023-03-06T04:21:41.554Z,14.10
2023-03-06T04:24:09.757Z,15.60
2023-03-06T04:26:37.610Z,14.90
2023-03-06T04:29:06.088Z,14.40
2023-03-06T04:31:34.340Z,12.30
2023-03-06T04:34:02.513Z,13.90
2023-03-06T04:36:33.532Z,11.80
2023-03-06T04:39:13.850Z,13.70
2023-03-06T04:41:42.509Z,12.70
2023-03-06T04:44:10.683Z,11.00
2023-03-06T04:46:38.792Z,12.00
2023-03-06T04:49:07.231Z,15.20
2023-03-06T04:51:36.845Z,14.90
2023-03-06T04:54:05.127Z,10.40
2023-03-06T04:56:34.432Z,13.10
2023-03-06T04:59:04.180Z,10.40
2023-03-06T05:01:32.000Z,13.40
2023-03-06T05:03:59.800Z,13.00
2023-03-06T05:06:27.671Z,13.00
2023-03-06T05:08:55.535Z,10.90
2023-03-06T05:11:23.567Z,12.70
2023-03-06T05:13:51.655Z,13.10
2023-03-06T05:16:19.466Z,14.20
2023-03-06T05:18:50.169Z,12.60
2023-03-06T05:21:18.479Z,10.50
2023-03-06T05:23:46.275Z,12.00
2023-03-06T05:26:15.912Z,13.00
2023-03-06T05:28:43.840Z,11.50
2023-03-06T05:31:12.037Z,13.50
2023-03-06T05:33:40.015Z,13.80
2023-03-06T05:36:09.769Z,12.90
2023-03-06T05:38:37.625Z,12.90
2023-03-06T05:41:05.472Z,12.70
2023-03-06T05:43:33.293Z,12.40
2023-03-06T05:46:07.082Z,13.30
2023-03-06T05:48:37.486Z,14.90
2023-03-06T05:51:06.372Z,13.60
2023-03-06T05:53:34.293Z,12.50
2023-03-06T05:56:06.452Z,13.00
2023-03-06T05:58:35.443Z,10.30
2023-03-06T06:01:11.563Z,13.60
2023-03-06T06:03:39.721Z,11.00
2023-03-06T06:06:10.666Z,12.70
2023-03-06T06:08:39.034Z,13.50
2023-03-06T06:11:09.904Z,13.70
2023-03-06T06:13:38.759Z,11.40
2023-03-06T06:16:16.465Z,13.40
2023-03-06T06:18:44.532Z,14.20
2023-03-06T06:21:14.755Z,12.70
2023-03-06T06:23:42.807Z,11.80
2023-03-06T06:26:11.238Z,13.20
2023-03-06T06:28:39.020Z,13.60
2023-03-06T06:31:12.567Z,12.20
2023-03-06T06:33:41.314Z,14.10
2023-03-06T06:36:21.821Z,13.40
2023-03-06T06:38:50.198Z,13.70
2023-03-06T06:41:53.041Z,13.30
2023-03-06T06:44:08.603Z,15.60
2023-03-06T06:49:26.306Z,13.10
2023-03-06T06:51:54.207Z,13.20
2023-03-06T06:54:22.407Z,14.90
2023-03-06T06:56:51.156Z,12.20
2023-03-06T06:59:19.256Z,16.20
2023-03-06T07:01:47.236Z,11.60
2023-03-06T07:04:15.754Z,12.60
2023-03-06T07:06:45.076Z,15.70
2023-03-06T07:09:13.605Z,12.10
2023-03-06T07:11:42.167Z,15.90
2023-03-06T07:14:09.947Z,14.60
2023-03-06T07:16:37.800Z,12.70
2023-03-06T07:19:06.778Z,13.40
2023-03-06T07:21:34.960Z,12.30
2023-03-06T07:24:02.724Z,12.80
2023-03-06T07:26:32.780Z,12.60
2023-03-06T07:29:03.899Z,11.40
2023-03-06T07:31:32.688Z,13.00
2023-03-06T07:34:01.922Z,12.50
2023-03-06T07:36:31.178Z,12.70
2023-03-06T07:38:58.951Z,12.70
2023-03-06T07:41:26.845Z,11.20
2023-03-06T07:43:54.651Z,12.80
2023-03-06T07:46:22.464Z,13.90
2023-03-06T07:48:50.240Z,14.30
2023-03-06T07:51:21.834Z,11.80
2023-03-06T07:56:17.849Z,13.80
2023-03-06T07:58:47.873Z,13.80
2023-03-06T08:01:23.476Z,12.30
2023-03-06T08:03:52.139Z,15.90
2023-03-06T08:06:26.583Z,15.40
2023-03-06T08:08:56.440Z,13.40
2023-03-06T08:11:30.448Z,14.30
2023-03-06T08:14:00.175Z,14.50
2023-03-06T08:16:30.700Z,16.20
2023-03-06T08:18:58.957Z,16.50
2023-03-06T08:21:28.376Z,14.40
2023-03-06T08:23:56.874Z,14.40
2023-03-06T08:26:28.303Z,14.50
2023-03-06T08:28:59.157Z,16.10
2023-03-06T08:31:31.188Z,15.00
2023-03-06T08:34:04.332Z,16.10
2023-03-06T08:36:33.015Z,16.40
2023-03-06T08:39:01.263Z,15.50
2023-03-06T08:41:30.199Z,12.90
2023-03-06T08:43:58.655Z,15.80
2023-03-06T08:46:29.733Z,15.90
2023-03-06T08:48:58.170Z,13.10
2023-03-06T08:51:26.717Z,14.90
2023-03-06T08:53:56.718Z,13.90
2023-03-06T08:56:31.197Z,13.60
2023-03-06T08:59:01.588Z,15.80
2023-03-06T09:01:34.751Z,13.20
2023-03-06T09:04:07.083Z,14.70
2023-03-06T09:06:40.929Z,15.10
2023-03-06T09:09:09.520Z,15.90
2023-03-06T09:11:37.367Z,13.30
2023-03-06T09:14:06.109Z,14.20
2023-03-06T09:16:34.079Z,14.30
2023-03-06T09:19:02.062Z,13.90
2023-03-06T09:21:30.029Z,13.60
2023-03-06T09:23:59.643Z,14.40
2023-03-06T09:26:39.540Z,12.80
2023-03-06T09:29:12.621Z,15.50
2023-03-06T09:31:40.597Z,14.50
2023-03-06T09:34:08.482Z,13.90
2023-03-06T09:36:53.351Z,13.30
2023-03-06T09:39:24.362Z,14.50
2023-03-06T09:41:52.676Z,13.40
2023-03-06T09:44:26.205Z,14.70
2023-03-06T09:47:22.953Z,17.00
2023-03-06T09:49:50.770Z,12.60
2023-03-06T09:52:45.980Z,15.10
2023-03-06T09:55:27.110Z,13.00
2023-03-06T09:58:07.169Z,14.90
2023-03-06T10:00:45.619Z,14.80
2023-03-06T10:03:39.788Z,11.40
2023-03-06T10:06:22.553Z,12.00
2023-03-06T10:09:06.095Z,11.60
2023-03-06T10:11:49.521Z,11.20
2023-03-06T10:14:40.141Z,13.20
2023-03-06T10:17:17.741Z,13.70
2023-03-06T10:19:49.549Z,14.30
2023-03-06T10:23:05.386Z,14.30
2023-03-06T10:26:01.202Z,10.90
2023-03-06T10:28:46.616Z,12.30
2023-03-06T10:31:27.043Z,10.00
2023-03-06T10:34:05.294Z,9.40
2023-03-06T10:36:33.087Z,10.80
2023-03-06T10:39:14.081Z,8.50
2023-03-06T10:41:42.530Z,8.20
2023-03-06T10:44:13.491Z,9.60
2023-03-06T10:46:47.973Z,8.50
2023-03-06T10:49:30.996Z,9.40
2023-03-06T10:52:09.683Z,7.90
2023-03-06T10:54:42.286Z,5.50
2023-03-06T10:57:31.865Z,8.90
2023-03-06T11:00:05.655Z,5.70
2023-03-06T11:02:41.120Z,6.20
2023-03-06T11:05:20.832Z,7.40
2023-03-06T11:07:59.538Z,6.50
2023-03-06T11:10:30.642Z,6.40
2023-03-06T11:13:07.482Z,6.10
2023-03-06T11:15:35.952Z,5.30
2023-03-06T11:18:08.322Z,4.70
2023-03-06T11:20:52.426Z,6.60
2023-03-06T11:23:44.311Z,6.30
2023-03-06T11:26:17.999Z,4.50
2023-03-06T11:29:16.230Z,4.60
2023-03-06T11:32:14.812Z,7.10
2023-03-06T11:34:51.040Z,6.90
2023-03-06T11:37:53.991Z,7.20
2023-03-06T11:40:59.027Z,4.50
2023-03-06T11:43:37.688Z,4.80
2023-03-06T11:46:12.352Z,6.00
2023-03-06T11:48:53.510Z,5.10
2023-03-06T11:51:35.720Z,6.10
2023-03-06T11:54:04.077Z,5.60
2023-03-06T11:56:39.536Z,4.10
2023-03-06T11:59:26.476Z,4.80
2023-03-06T12:02:15.606Z,5.40
2023-03-06T12:05:01.378Z,5.80
2023-03-06T12:07:35.019Z,3.80
2023-03-06T12:10:23.954Z,5.60
2023-03-06T12:13:10.821Z,5.90
2023-03-06T12:16:22.866Z,4.30
2023-03-06T12:19:12.535Z,5.40
2023-03-06T12:21:55.706Z,4.00
2023-03-06T12:24:48.466Z,4.20
2023-03-06T12:27:47.185Z,5.10
2023-03-06T12:30:36.577Z,5.70
2023-03-06T12:33:12.945Z,3.60
2023-03-06T12:36:04.741Z,3.00
2023-03-06T12:38:59.116Z,5.20
2023-03-06T12:42:06.789Z,3.90
2023-03-06T12:44:47.489Z,4.00
2023-03-06T12:47:21.661Z,4.40
2023-03-06T12:50:17.045Z,3.80
2023-03-06T12:52:48.132Z,3.80
2023-03-06T12:55:23.122Z,4.40
2023-03-06T12:57:52.794Z,4.60
2023-03-06T13:00:32.560Z,3.40
2023-03-06T13:03:23.394Z,3.50
2023-03-06T13:06:30.981Z,4.10
2023-03-06T13:09:40.073Z,3.00
2023-03-06T13:12:38.756Z,2.30
2023-03-06T13:15:39.105Z,4.50
2023-03-06T13:18:22.232Z,3.20
2023-03-06T13:20:57.636Z,3.50
2023-03-06T13:23:37.306Z,3.70
2023-03-06T13:26:25.773Z,3.50
2023-03-06T13:28:57.822Z,3.80
2023-03-06T13:31:36.479Z,4.90
2023-03-06T13:34:31.961Z,3.60
2023-03-06T13:37:18.509Z,4.30
2023-03-06T13:39:55.308Z,5.80
2023-03-06T13:42:37.338Z,2.60
2023-03-06T13:45:08.409Z,2.70
2023-03-06T13:48:02.862Z,4.90
2023-03-06T13:50:44.657Z,3.30
2023-03-06T13:53:36.922Z,23.50
2023-03-06T13:56:34.903Z,4.20
2023-03-06T13:59:46.081Z,2.80
2023-03-06T14:02:39.668Z,4.60
2023-03-06T14:05:15.525Z,4.20
2023-03-06T14:07:47.431Z,3.00
2023-03-06T14:10:22.180Z,3.90
2023-03-06T14:12:49.923Z,2.80
2023-03-06T14:15:46.855Z,4.90
2023-03-06T14:18:30.965Z,3.90
2023-03-06T14:21:02.782Z,3.50
2023-03-06T14:23:38.108Z,1.40
2023-03-06T14:26:24.947Z,4.00
2023-03-06T14:28:52.667Z,3.70
2023-03-06T14:31:28.477Z,3.50
2023-03-06T14:34:03.411Z,3.50
2023-03-06T14:36:42.036Z,4.30
2023-03-06T14:39:36.134Z,2.60
2023-03-06T14:42:22.235Z,2.90
2023-03-06T14:45:19.895Z,1.60
2023-03-06T14:47:53.390Z,2.20
2023-03-06T14:50:34.275Z,2.20
2023-03-06T14:53:33.367Z,1.70
2023-03-06T14:56:06.779Z,2.10
2023-03-06T14:58:48.268Z,2.20
2023-03-06T15:03:55.039Z,2.70
2023-03-06T15:06:40.363Z,1.30
2023-03-06T15:09:16.712Z,4.20
2023-03-06T15:11:53.777Z,2.60
2023-03-06T15:14:29.639Z,2.60
2023-03-06T15:17:40.586Z,3.10
2023-03-06T15:21:14.122Z,2.60
2023-03-06T15:23:45.603Z,3.80
2023-03-06T15:26:33.968Z,3.20
2023-03-06T15:29:13.783Z,2.10
2023-03-06T15:31:46.188Z,2.00
2023-03-06T15:34:23.603Z,2.10
2023-03-06T15:36:55.725Z,2.70
2023-03-06T15:39:39.904Z,1.10
2023-03-06T15:42:21.017Z,2.60
2023-03-06T15:45:03.289Z,2.20
2023-03-06T15:47:31.577Z,2.50
2023-03-06T15:49:59.309Z,1.60
2023-03-06T15:52:27.176Z,1.80
2023-03-06T15:54:55.097Z,3.10
2023-03-06T15:57:29.284Z,1.80
2023-03-06T16:00:00.207Z,4.50
2023-03-06T16:02:28.120Z,3.40
2023-03-06T16:04:56.149Z,3.20
2023-03-06T16:07:23.913Z,3.80
2023-03-06T16:09:52.155Z,3.90
2023-03-06T16:12:22.781Z,3.20
2023-03-06T16:14:50.610Z,3.90
2023-03-06T16:17:18.441Z,3.60
2023-03-06T16:19:46.236Z,3.40
2023-03-06T16:22:14.542Z,3.50
2023-03-06T16:24:43.276Z,3.70
2023-03-06T16:27:19.152Z,6.50
2023-03-06T16:29:47.036Z,7.30
2023-03-06T16:32:14.930Z,6.20
2023-03-06T16:34:42.731Z,5.00
2023-03-06T16:37:13.549Z,4.70
2023-03-06T16:39:41.477Z,5.70
2023-03-06T16:42:09.332Z,5.20
2023-03-06T16:44:37.115Z,5.80
2023-03-06T16:47:05.114Z,8.80
2023-03-06T16:49:32.913Z,8.50
2023-03-06T16:52:00.712Z,7.80
2023-03-06T16:54:28.495Z,7.60
2023-03-06T16:56:56.377Z,5.60
2023-03-06T16:59:25.242Z,5.00
2023-03-06T17:01:53.027Z,7.40
2023-03-06T17:04:20.865Z,6.30
2023-03-06T17:06:48.671Z,6.40
2023-03-06T17:09:16.746Z,5.30
2023-03-06T17:11:46.853Z,12.30
2023-03-06T17:14:14.990Z,4.50
2023-03-06T17:16:42.949Z,4.50
2023-03-06T17:19:15.227Z,3.70
2023-03-06T17:21:44.313Z,5.40
2023-03-06T17:24:12.120Z,5.60
2023-03-06T17:26:40.243Z,5.70
2023-03-06T17:29:09.546Z,3.60
2023-03-06T17:31:37.438Z,2.90
2023-03-06T17:34:05.278Z,3.80
2023-03-06T17:36:33.541Z,4.80
2023-03-06T17:39:03.392Z,4.30
2023-03-06T17:41:32.843Z,6.80
2023-03-06T17:44:01.785Z,3.10
2023-03-06T17:46:34.698Z,3.40
2023-03-06T17:49:03.383Z,4.20
2023-03-06T17:51:31.140Z,3.60
2023-03-06T17:53:58.996Z,3.20
2023-03-06T17:56:27.516Z,4.40
2023-03-06T17:58:57.167Z,3.50
2023-03-06T18:01:28.474Z,5.40
2023-03-06T18:03:58.618Z,5.40
2023-03-06T18:06:30.083Z,5.60
2023-03-06T18:11:27.174Z,5.30
2023-03-06T18:13:55.052Z,6.30
2023-03-06T18:16:26.003Z,7.00
2023-03-06T18:18:56.472Z,5.60
2023-03-06T18:21:26.293Z,5.80
2023-03-06T18:23:54.204Z,4.30
2023-03-06T18:26:26.697Z,5.20
2023-03-06T18:28:58.238Z,5.30
2023-03-06T18:34:09.864Z,4.10
2023-03-06T18:36:38.870Z,4.50
2023-03-06T18:39:10.281Z,2.70
2023-03-06T18:41:38.321Z,3.30
2023-03-06T18:44:06.542Z,7.50
2023-03-06T18:46:37.821Z,6.50
2023-03-06T18:49:06.763Z,8.20
2023-03-06T18:51:35.424Z,3.90
2023-03-06T18:54:05.893Z,5.80
2023-03-06T18:56:35.062Z,3.50
2023-03-06T18:59:05.069Z,3.70
2023-03-06T19:01:34.082Z,2.50
2023-03-06T19:04:04.698Z,4.00
2023-03-06T19:06:32.689Z,3.60
2023-03-06T19:09:02.144Z,6.10
2023-03-06T19:11:31.972Z,4.20
2023-03-06T19:14:00.761Z,2.90
2023-03-06T19:16:31.218Z,5.90
2023-03-06T19:18:59.354Z,3.60
2023-03-06T19:21:28.811Z,3.30
2023-03-06T19:23:57.522Z,3.30
2023-03-06T19:26:26.961Z,3.30
2023-03-06T19:28:55.114Z,2.70
2023-03-06T19:31:27.053Z,4.20
2023-03-06T19:33:56.830Z,3.80
2023-03-06T19:36:33.283Z,4.60
2023-03-06T19:39:05.125Z,7.60
2023-03-06T19:41:33.661Z,6.10
2023-03-06T19:44:03.340Z,3.10
2023-03-06T19:46:32.216Z,3.80
2023-03-06T19:49:09.940Z,3.40
2023-03-06T19:51:38.523Z,4.70
2023-03-06T19:54:06.307Z,3.50
2023-03-06T19:56:34.131Z,4.70
2023-03-06T19:59:02.129Z,3.90
2023-03-06T20:01:29.991Z,4.60
2023-03-06T20:03:59.776Z,4.60
2023-03-06T20:06:33.576Z,6.00
2023-03-06T20:09:06.032Z,5.60
2023-03-06T20:11:34.267Z,6.70
2023-03-06T20:14:04.705Z,7.60
2023-03-06T20:16:34.205Z,8.40
2023-03-06T20:19:02.532Z,7.80
2023-03-06T20:21:35.373Z,9.20
2023-03-06T20:24:05.271Z,7.30
2023-03-06T20:26:34.778Z,8.40
2023-03-06T20:29:03.196Z,8.70
2023-03-06T20:31:31.103Z,10.00
2023-03-06T20:34:00.507Z,10.20
2023-03-06T20:36:35.985Z,8.80
2023-03-06T20:39:08.998Z,9.40
2023-03-06T20:41:37.945Z,9.60
2023-03-06T20:44:13.412Z,10.10
2023-03-06T20:46:41.983Z,11.40
2023-03-06T20:49:13.264Z,11.60
2023-03-06T20:51:42.342Z,9.90
2023-03-06T20:54:13.982Z,9.60
2023-03-06T20:56:46.028Z,10.20
2023-03-06T20:59:14.326Z,10.10
2023-03-06T21:01:45.056Z,9.20
2023-03-06T21:04:14.813Z,11.10
2023-03-06T21:06:46.772Z,10.50
2023-03-06T21:09:17.078Z,11.60
2023-03-06T21:11:45.937Z,10.50
2023-03-06T21:14:14.966Z,9.80
2023-03-06T21:16:43.931Z,10.80
2023-03-06T21:19:12.487Z,11.90
2023-03-06T21:21:40.358Z,12.20
2023-03-06T21:24:08.538Z,11.40
2023-03-06T21:26:36.441Z,9.40
2023-03-06T21:29:05.092Z,9.40
2023-03-06T21:31:33.559Z,9.30
2023-03-06T21:34:04.524Z,8.90
2023-03-06T21:36:34.068Z,10.60
2023-03-06T21:39:02.269Z,10.80
2023-03-06T21:41:32.174Z,8.80
2023-03-06T21:44:04.975Z,8.20
2023-03-06T21:46:34.810Z,8.50
2023-03-06T21:49:05.244Z,9.20
2023-03-06T21:51:34.414Z,10.00
2023-03-06T21:54:02.897Z,8.60
2023-03-06T21:56:33.055Z,11.20
2023-03-06T21:59:01.345Z,9.30
2023-03-06T22:01:30.184Z,10.70
2023-03-06T22:03:59.940Z,10.60
2023-03-06T22:06:30.196Z,8.90
2023-03-06T22:09:00.301Z,8.80
2023-03-06T22:11:31.404Z,9.90
2023-03-06T22:13:59.648Z,9.00
2023-03-06T22:16:28.206Z,12.20
2023-03-06T22:18:56.432Z,9.80
2023-03-06T22:21:25.242Z,9.20
2023-03-06T22:23:59.392Z,9.70
2023-03-06T22:26:29.206Z,9.50
2023-03-06T22:28:57.178Z,10.30
2023-03-06T22:31:28.535Z,9.70
2023-03-06T22:34:00.067Z,9.20
2023-03-06T22:39:02.752Z,10.80
2023-03-06T22:41:31.266Z,9.60
2023-03-06T22:44:02.510Z,10.60
2023-03-06T22:46:32.244Z,9.00
2023-03-06T22:49:01.289Z,10.30
2023-03-06T22:51:29.748Z,10.50
2023-03-06T22:53:58.256Z,11.00
2023-03-06T22:56:26.318Z,10.90
2023-03-06T22:58:54.258Z,11.00
2023-03-06T23:01:25.868Z,9.30
2023-03-06T23:03:58.001Z,10.10
2023-03-06T23:06:31.526Z,10.90
2023-03-06T23:09:07.566Z,8.50
2023-03-06T23:11:53.624Z,13.50
2023-03-06T23:14:40.267Z,13.00
2023-03-06T23:17:26.904Z,10.80
2023-03-06T23:20:13.740Z,10.20
2023-03-06T23:23:00.221Z,13.10
2023-03-06T23:25:44.298Z,12.30
2023-03-06T23:28:12.343Z,10.40
2023-03-06T23:30:42.209Z,11.20
2023-03-06T23:33:11.072Z,13.10
2023-03-06T23:35:39.116Z,6.30
2023-03-06T23:38:07.206Z,6.50
2023-03-06T23:40:35.336Z,5.20
2023-03-06T23:43:03.864Z,5.60
2023-03-06T23:45:32.318Z,4.60
2023-03-06T23:48:00.236Z,4.50
2023-03-06T23:50:28.124Z,4.00
2023-03-06T23:52:55.916Z,5.30
2023-03-06T23:55:23.735Z,4.50
2023-03-06T23:57:51.663Z,5.10
